Aviation Digital Data Service (ADDS)

Output produced by TAFs form (2113 UTC 20 November 2017)
found at http://www.aviationweather.gov/adds/tafs/
 
KRNH 201720Z 2018/2118 19010KT P6SM BKN200 
     FM210100 22009KT P6SM BKN200 
     FM210500 26011KT P6SM SCT250 
     FM210900 29016G25KT P6SM BKN050